createdAt,value
2022-10-15T00:01:44.409Z,8.70
2022-10-15T00:04:12.575Z,8.13
2022-10-15T00:06:41.011Z,8.83
2022-10-15T00:09:09.151Z,8.10
2022-10-15T00:11:40.165Z,8.10
2022-10-15T00:14:08.700Z,8.30
2022-10-15T00:16:37.016Z,8.47
2022-10-15T00:19:05.388Z,8.70
2022-10-15T00:21:33.945Z,9.40
2022-10-15T00:24:02.178Z,9.53
2022-10-15T00:26:31.076Z,9.10
2022-10-15T00:29:02.882Z,8.30
2022-10-15T00:31:32.587Z,10.30
2022-10-15T00:34:02.741Z,10.03
2022-10-15T00:36:33.619Z,9.77
2022-10-15T00:39:02.853Z,10.50
2022-10-15T00:41:33.205Z,10.87
2022-10-15T00:44:04.647Z,11.20
2022-10-15T00:46:35.957Z,10.83
2022-10-15T00:49:14.669Z,9.93
2022-10-15T00:51:47.010Z,11.17
2022-10-15T00:54:17.017Z,9.73
2022-10-15T00:56:47.309Z,9.00
2022-10-15T00:59:20.012Z,10.47
2022-10-15T01:01:48.497Z,8.73
2022-10-15T01:04:17.678Z,10.03
2022-10-15T01:06:47.140Z,9.17
2022-10-15T01:09:15.620Z,8.17
2022-10-15T01:11:47.058Z,8.93
2022-10-15T01:14:28.986Z,8.47
2022-10-15T01:17:01.578Z,8.57
2022-10-15T01:19:54.257Z,7.70
2022-10-15T01:22:34.726Z,8.50
2022-10-15T01:27:55.826Z,7.80
2022-10-15T01:30:27.066Z,7.40
2022-10-15T01:33:18.200Z,7.20
2022-10-15T01:35:51.339Z,7.30
2022-10-15T01:38:28.746Z,7.47
2022-10-15T01:41:00.457Z,7.23
2022-10-15T01:43:34.596Z,7.30
2022-10-15T01:46:09.682Z,7.30
2022-10-15T01:48:41.995Z,6.87
2022-10-15T01:51:13.578Z,7.37
2022-10-15T01:53:43.865Z,7.17
2022-10-15T01:56:17.188Z,7.17
2022-10-15T01:58:48.196Z,7.87
2022-10-15T02:01:18.374Z,7.53
2022-10-15T02:03:47.897Z,7.73
2022-10-15T02:06:22.826Z,7.77
2022-10-15T02:09:00.663Z,7.43
2022-10-15T02:11:29.783Z,6.53
2022-10-15T02:14:03.373Z,5.83
2022-10-15T02:16:41.721Z,6.20
2022-10-15T02:19:19.193Z,6.43
2022-10-15T02:21:52.009Z,6.07
2022-10-15T02:24:24.598Z,5.90
2022-10-15T02:26:55.181Z,6.33
2022-10-15T02:29:27.935Z,6.33
2022-10-15T02:31:59.589Z,6.07
2022-10-15T02:34:33.863Z,6.53
2022-10-15T02:37:04.851Z,6.40
2022-10-15T02:39:33.215Z,5.80
2022-10-15T02:42:01.933Z,5.40
2022-10-15T02:44:30.373Z,7.43
2022-10-15T02:47:01.137Z,6.50
2022-10-15T02:49:29.301Z,7.20
2022-10-15T02:51:57.552Z,7.17
2022-10-15T02:54:26.089Z,7.30
2022-10-15T02:56:54.217Z,6.93
2022-10-15T02:59:22.472Z,7.07
2022-10-15T03:01:50.727Z,7.33
2022-10-15T03:04:20.299Z,7.60
2022-10-15T03:06:48.709Z,8.10
2022-10-15T03:09:16.842Z,7.30
2022-10-15T03:11:44.958Z,6.87
2022-10-15T03:14:14.013Z,7.47
2022-10-15T03:16:42.357Z,7.50
2022-10-15T03:19:10.470Z,7.03
2022-10-15T03:21:40.650Z,7.33
2022-10-15T03:24:09.079Z,7.57
2022-10-15T03:26:37.154Z,7.30
2022-10-15T03:29:07.990Z,7.73
2022-10-15T03:31:36.438Z,7.87
2022-10-15T03:34:04.716Z,6.83
2022-10-15T03:36:33.375Z,7.60
2022-10-15T03:39:03.024Z,7.57
2022-10-15T03:41:31.117Z,6.67
2022-10-15T03:44:03.146Z,7.23
2022-10-15T03:46:31.259Z,6.90
2022-10-15T03:48:59.609Z,7.17
2022-10-15T03:51:31.428Z,8.03
2022-10-15T03:53:59.893Z,7.43
2022-10-15T03:56:29.812Z,7.97
2022-10-15T03:58:57.876Z,7.50
2022-10-15T04:01:26.043Z,8.00
2022-10-15T04:03:54.750Z,7.47
2022-10-15T04:06:22.905Z,7.67
2022-10-15T04:11:21.184Z,7.63
2022-10-15T04:13:51.429Z,7.47
2022-10-15T04:16:19.746Z,7.90
2022-10-15T04:18:48.510Z,7.53
2022-10-15T04:21:16.730Z,7.10
2022-10-15T04:23:44.784Z,7.30
2022-10-15T04:26:13.359Z,8.03
2022-10-15T04:28:41.519Z,8.97
2022-10-15T04:31:11.037Z,8.13
2022-10-15T04:33:39.521Z,8.83
2022-10-15T04:36:09.981Z,9.83
2022-10-15T04:38:38.302Z,9.87
2022-10-15T04:41:09.498Z,11.13
2022-10-15T04:43:39.191Z,11.97
2022-10-15T04:46:09.010Z,11.27
2022-10-15T04:48:42.932Z,11.53
2022-10-15T04:51:14.889Z,11.67
2022-10-15T04:53:43.468Z,12.47
2022-10-15T04:56:15.399Z,12.33
2022-10-15T04:58:43.822Z,14.13
2022-10-15T05:01:15.489Z,15.30
2022-10-15T05:03:46.787Z,16.70
2022-10-15T05:06:18.159Z,16.10
2022-10-15T05:08:47.042Z,17.80
2022-10-15T05:11:18.293Z,17.30
2022-10-15T05:13:47.062Z,16.13
2022-10-15T05:16:17.755Z,18.37
2022-10-15T05:18:49.292Z,18.30
2022-10-15T05:21:19.185Z,20.00
2022-10-15T05:23:50.106Z,19.83
2022-10-15T05:26:20.702Z,20.20
2022-10-15T05:28:49.152Z,20.67
2022-10-15T05:31:19.939Z,20.37
2022-10-15T05:33:50.239Z,20.50
2022-10-15T05:36:20.651Z,19.73
2022-10-15T05:38:51.285Z,20.23
2022-10-15T05:41:20.719Z,21.23
2022-10-15T05:43:49.241Z,21.53
2022-10-15T05:46:17.728Z,22.33
2022-10-15T05:48:51.037Z,22.57
2022-10-15T05:51:19.559Z,22.13
2022-10-15T05:53:48.380Z,24.53
2022-10-15T05:56:17.284Z,25.30
2022-10-15T05:58:45.800Z,26.97
2022-10-15T06:01:14.969Z,24.17
2022-10-15T06:03:44.386Z,23.40
2022-10-15T06:06:18.429Z,23.60
2022-10-15T06:08:47.042Z,22.73
2022-10-15T06:11:15.496Z,25.17
2022-10-15T06:13:44.690Z,24.63
2022-10-15T06:16:15.560Z,25.03
2022-10-15T06:18:46.772Z,26.10
2022-10-15T06:21:16.226Z,26.20
2022-10-15T06:23:45.656Z,27.57
2022-10-15T06:26:14.266Z,25.27
2022-10-15T06:28:42.410Z,22.40
2022-10-15T06:31:10.794Z,24.07
2022-10-15T06:33:39.674Z,21.63
2022-10-15T06:36:10.294Z,21.37
2022-10-15T06:38:40.611Z,20.90
2022-10-15T06:41:09.217Z,20.63
2022-10-15T06:43:37.766Z,19.20
2022-10-15T06:46:07.533Z,18.93
2022-10-15T06:48:36.128Z,18.97
2022-10-15T06:51:05.110Z,21.77
2022-10-15T06:53:33.902Z,19.70
2022-10-15T06:56:04.860Z,19.20
2022-10-15T06:58:32.955Z,19.23
2022-10-15T07:01:02.735Z,21.27
2022-10-15T07:03:30.967Z,19.13
2022-10-15T07:06:04.630Z,22.07
2022-10-15T07:08:32.871Z,21.00
2022-10-15T07:11:04.859Z,22.63
2022-10-15T07:13:33.607Z,18.27
2022-10-15T07:16:05.939Z,22.53
2022-10-15T07:18:35.140Z,20.93
2022-10-15T07:21:03.346Z,20.03
2022-10-15T07:23:31.544Z,24.53
2022-10-15T07:26:00.976Z,23.37
2022-10-15T07:28:30.559Z,19.43
2022-10-15T07:31:03.014Z,20.93
2022-10-15T07:33:31.149Z,22.67
2022-10-15T07:35:59.269Z,22.30
2022-10-15T07:38:27.957Z,18.33
2022-10-15T07:40:59.510Z,20.80
2022-10-15T07:43:28.577Z,20.57
2022-10-15T07:45:58.111Z,19.43
2022-10-15T07:48:26.285Z,15.57
2022-10-15T07:50:58.170Z,20.13
2022-10-15T07:53:26.634Z,21.10
2022-10-15T07:55:54.691Z,21.20
2022-10-15T07:58:23.253Z,13.63
2022-10-15T08:00:51.315Z,19.60
2022-10-15T08:03:20.755Z,20.30
2022-10-15T08:05:53.385Z,20.20
2022-10-15T08:08:21.708Z,18.60
2022-10-15T08:10:49.951Z,17.97
2022-10-15T08:13:18.189Z,16.97
2022-10-15T08:15:46.331Z,20.03
2022-10-15T08:18:14.729Z,21.87
2022-10-15T08:20:44.433Z,21.77
2022-10-15T08:23:16.984Z,19.97
2022-10-15T08:25:45.886Z,20.90
2022-10-15T08:28:14.170Z,18.17
2022-10-15T08:30:42.722Z,19.13
2022-10-15T08:33:11.166Z,14.53
2022-10-15T08:35:43.954Z,16.00
2022-10-15T08:38:14.894Z,17.40
2022-10-15T08:40:49.140Z,18.43
2022-10-15T08:43:23.581Z,16.43
2022-10-15T08:45:56.618Z,17.73
2022-10-15T08:48:31.761Z,15.67
2022-10-15T08:51:07.318Z,18.60
2022-10-15T08:53:40.686Z,15.93
2022-10-15T08:56:17.146Z,15.33
2022-10-15T08:58:52.404Z,17.60
2022-10-15T09:01:29.460Z,15.67
2022-10-15T09:04:08.169Z,13.80
2022-10-15T09:06:39.569Z,16.50
2022-10-15T09:09:15.707Z,15.50
2022-10-15T09:11:52.450Z,16.60
2022-10-15T09:14:28.518Z,17.07
2022-10-15T09:16:56.654Z,16.17
2022-10-15T09:19:27.243Z,15.90
2022-10-15T09:21:57.527Z,15.77
2022-10-15T09:24:28.963Z,17.77
2022-10-15T09:27:07.181Z,16.87
2022-10-15T09:29:42.651Z,16.27
2022-10-15T09:32:18.205Z,17.50
2022-10-15T09:34:51.794Z,16.50
2022-10-15T09:37:29.438Z,14.90
2022-10-15T09:40:32.113Z,16.00
2022-10-15T09:43:02.329Z,16.03
2022-10-15T09:45:31.213Z,15.73
2022-10-15T09:48:00.978Z,16.97
2022-10-15T09:50:37.620Z,14.53
2022-10-15T09:53:19.074Z,16.13
2022-10-15T09:55:51.712Z,17.23
2022-10-15T09:58:23.040Z,16.30
2022-10-15T10:01:18.125Z,14.93
2022-10-15T10:03:46.258Z,16.57
2022-10-15T10:06:16.427Z,16.53
2022-10-15T10:08:53.303Z,15.13
2022-10-15T10:11:22.409Z,11.13
2022-10-15T10:13:56.655Z,18.33
2022-10-15T10:16:25.835Z,18.33
2022-10-15T10:19:07.947Z,15.30
2022-10-15T10:21:39.389Z,22.23
2022-10-15T10:24:30.919Z,18.50
2022-10-15T10:26:59.884Z,19.37
2022-10-15T10:29:36.588Z,21.77
2022-10-15T10:32:13.429Z,20.10
2022-10-15T10:34:50.091Z,22.27
2022-10-15T10:37:21.775Z,21.43
2022-10-15T10:39:58.068Z,23.53
2022-10-15T10:42:34.461Z,23.07
2022-10-15T10:45:20.966Z,23.57
2022-10-15T10:47:49.918Z,23.33
2022-10-15T10:50:33.034Z,19.00
2022-10-15T10:53:19.577Z,23.40
2022-10-15T10:55:49.893Z,25.10
2022-10-15T10:58:24.832Z,18.60
2022-10-15T11:00:56.289Z,26.30
2022-10-15T11:03:33.635Z,29.27
2022-10-15T11:06:24.002Z,21.77
2022-10-15T11:09:03.824Z,30.87
2022-10-15T11:11:40.751Z,24.87
2022-10-15T11:14:18.870Z,28.47
2022-10-15T11:16:54.061Z,26.90
2022-10-15T11:22:34.940Z,25.83
2022-10-15T11:25:12.649Z,24.23
2022-10-15T11:27:56.561Z,23.93
2022-10-15T11:30:43.266Z,23.77
2022-10-15T11:33:34.684Z,23.00
2022-10-15T11:36:20.850Z,25.80
2022-10-15T11:38:55.029Z,25.10
2022-10-15T11:41:39.561Z,25.10
2022-10-15T11:44:33.711Z,23.57
2022-10-15T11:47:15.538Z,22.47
2022-10-15T11:49:53.014Z,24.30
2022-10-15T11:52:34.397Z,22.77
2022-10-15T11:55:06.787Z,21.47
2022-10-15T11:57:40.355Z,21.27
2022-10-15T12:00:24.521Z,13.50
2022-10-15T12:02:55.080Z,17.83
2022-10-15T12:05:32.922Z,22.37
2022-10-15T12:08:01.919Z,24.90
2022-10-15T12:10:46.988Z,24.53
2022-10-15T12:13:21.170Z,22.23
2022-10-15T12:15:58.047Z,22.03
2022-10-15T12:18:35.049Z,18.00
2022-10-15T12:21:03.442Z,21.03
2022-10-15T12:23:42.734Z,23.87
2022-10-15T12:26:35.773Z,22.00
2022-10-15T12:29:07.070Z,21.70
2022-10-15T12:31:48.323Z,20.67
2022-10-15T12:34:32.429Z,19.20
2022-10-15T12:37:05.932Z,16.77
2022-10-15T12:42:27.269Z,18.73
2022-10-15T12:44:56.373Z,19.20
2022-10-15T12:47:51.996Z,21.13
2022-10-15T12:50:21.996Z,19.13
2022-10-15T12:53:01.936Z,20.27
2022-10-15T12:55:34.753Z,25.87
2022-10-15T12:58:07.811Z,21.13
2022-10-15T13:00:43.714Z,25.33
2022-10-15T13:03:34.807Z,22.37
2022-10-15T13:06:24.527Z,25.03
2022-10-15T13:08:55.518Z,26.47
2022-10-15T13:11:28.590Z,25.27
2022-10-15T13:14:00.549Z,25.17
2022-10-15T13:16:29.744Z,25.60
2022-10-15T13:19:00.409Z,25.03
2022-10-15T13:21:50.955Z,21.43
2022-10-15T13:24:22.572Z,25.60
2022-10-15T13:26:51.571Z,23.77
2022-10-15T13:29:22.243Z,16.97
2022-10-15T13:31:51.588Z,22.70
2022-10-15T13:34:28.877Z,23.63
2022-10-15T13:36:59.112Z,22.13
2022-10-15T13:39:31.721Z,23.57
2022-10-15T13:42:11.476Z,23.30
2022-10-15T13:44:40.494Z,23.73
2022-10-15T13:47:26.450Z,23.80
2022-10-15T13:50:14.582Z,22.60
2022-10-15T13:52:45.071Z,23.50
2022-10-15T13:55:19.234Z,22.90
2022-10-15T13:57:48.155Z,23.50
2022-10-15T14:00:25.939Z,25.97
2022-10-15T14:03:17.558Z,26.40
2022-10-15T14:05:48.434Z,26.00
2022-10-15T14:08:18.801Z,25.33
2022-10-15T14:10:47.547Z,28.07
2022-10-15T14:13:16.418Z,24.23
2022-10-15T14:15:51.476Z,28.53
2022-10-15T14:18:31.122Z,24.43
2022-10-15T14:21:01.067Z,26.83
2022-10-15T14:23:30.036Z,27.73
2022-10-15T14:26:00.593Z,28.10
2022-10-15T14:28:31.230Z,27.87
2022-10-15T14:31:00.213Z,28.63
2022-10-15T14:33:33.842Z,29.93
2022-10-15T14:36:09.630Z,29.90
2022-10-15T14:38:38.685Z,30.40
2022-10-15T14:41:25.883Z,29.60
2022-10-15T14:44:19.369Z,24.87
2022-10-15T14:46:49.741Z,27.40
2022-10-15T14:49:30.940Z,27.60
2022-10-15T14:52:06.771Z,28.90
2022-10-15T14:54:39.636Z,29.80
2022-10-15T14:57:17.699Z,27.60
2022-10-15T14:59:46.352Z,29.37
2022-10-15T15:02:17.145Z,28.93
2022-10-15T15:04:48.485Z,28.80
2022-10-15T15:07:22.965Z,27.93
2022-10-15T15:09:52.649Z,29.50
2022-10-15T15:12:27.778Z,30.30
2022-10-15T15:14:56.635Z,29.50
2022-10-15T15:17:27.013Z,29.07
2022-10-15T15:19:56.818Z,28.37
2022-10-15T15:22:30.729Z,27.63
2022-10-15T15:25:00.912Z,28.27
2022-10-15T15:27:31.058Z,30.37
2022-10-15T15:29:59.825Z,28.30
2022-10-15T15:32:28.098Z,30.40
2022-10-15T15:34:58.789Z,29.27
2022-10-15T15:37:30.645Z,30.17
2022-10-15T15:39:59.050Z,30.93
2022-10-15T15:42:27.498Z,28.70
2022-10-15T15:44:56.165Z,30.03
2022-10-15T15:47:24.532Z,29.40
2022-10-15T15:49:52.685Z,27.63
2022-10-15T15:52:20.990Z,29.63
2022-10-15T15:54:50.463Z,29.63
2022-10-15T15:57:18.579Z,29.00
2022-10-15T15:59:46.779Z,31.43
2022-10-15T16:02:14.862Z,30.83
2022-10-15T16:04:45.493Z,30.73
2022-10-15T16:07:15.283Z,29.20
2022-10-15T16:09:44.542Z,30.43
2022-10-15T16:12:14.207Z,30.33
2022-10-15T16:14:42.671Z,31.67
2022-10-15T16:17:11.109Z,31.90
2022-10-15T16:19:39.272Z,30.73
2022-10-15T16:22:07.929Z,33.33
2022-10-15T16:24:36.282Z,36.80
2022-10-15T16:27:04.491Z,33.27
2022-10-15T16:29:34.252Z,33.83
2022-10-15T16:32:02.853Z,34.23
2022-10-15T16:34:31.399Z,34.10
2022-10-15T16:36:59.930Z,33.33
2022-10-15T16:39:28.392Z,33.13
2022-10-15T16:41:56.611Z,34.70
2022-10-15T16:44:24.924Z,33.93
2022-10-15T16:46:54.682Z,34.50
2022-10-15T16:49:22.780Z,34.03
2022-10-15T16:51:51.082Z,33.63
2022-10-15T16:54:20.034Z,34.70
2022-10-15T16:56:50.541Z,29.30
2022-10-15T16:59:21.729Z,33.90
2022-10-15T17:01:49.947Z,33.63
2022-10-15T17:04:19.482Z,32.67
2022-10-15T17:06:47.822Z,35.77
2022-10-15T17:09:16.228Z,34.20
2022-10-15T17:11:46.974Z,33.97
2022-10-15T17:14:17.197Z,36.00
2022-10-15T17:16:46.901Z,34.77
2022-10-15T17:19:16.214Z,34.23
2022-10-15T17:21:47.284Z,36.80
2022-10-15T17:24:17.963Z,34.60
2022-10-15T17:26:47.292Z,36.40
2022-10-15T17:29:20.173Z,36.40
2022-10-15T17:31:49.393Z,34.37
2022-10-15T17:34:18.330Z,38.07
2022-10-15T17:36:49.783Z,36.77
2022-10-15T17:39:20.350Z,37.30
2022-10-15T17:41:48.544Z,35.17
2022-10-15T17:44:16.661Z,33.40
2022-10-15T17:46:45.333Z,34.87
2022-10-15T17:49:18.305Z,37.03
2022-10-15T17:51:48.768Z,33.83
2022-10-15T17:54:17.346Z,35.97
2022-10-15T17:56:45.571Z,36.13
2022-10-15T17:59:14.610Z,37.07
2022-10-15T18:02:00.768Z,33.40
2022-10-15T18:04:30.212Z,33.97
2022-10-15T18:06:59.920Z,34.97
2022-10-15T18:09:28.657Z,37.67
2022-10-15T18:11:57.929Z,36.47
2022-10-15T18:14:26.060Z,33.93
2022-10-15T18:16:54.302Z,38.97
2022-10-15T18:19:22.806Z,32.90
2022-10-15T18:21:50.961Z,36.67
2022-10-15T18:24:22.124Z,40.53
2022-10-15T18:26:51.042Z,37.73
2022-10-15T18:29:19.548Z,38.47
2022-10-15T18:31:48.428Z,35.03
2022-10-15T18:34:18.922Z,38.37
2022-10-15T18:36:47.058Z,37.53
2022-10-15T18:39:15.549Z,37.67
2022-10-15T18:41:45.391Z,34.57
2022-10-15T18:44:15.979Z,38.13
2022-10-15T18:46:45.730Z,34.70
2022-10-15T18:49:14.953Z,36.23
2022-10-15T18:51:43.250Z,40.93
2022-10-15T18:54:11.533Z,36.13
2022-10-15T18:56:39.843Z,40.10
2022-10-15T18:59:09.304Z,40.23
2022-10-15T19:01:39.210Z,41.30
2022-10-15T19:04:09.774Z,40.17
2022-10-15T19:06:40.437Z,40.73
2022-10-15T19:09:11.771Z,40.67
2022-10-15T19:11:41.122Z,36.63
2022-10-15T19:14:11.126Z,35.20
2022-10-15T19:16:39.801Z,36.97
2022-10-15T19:19:08.107Z,34.80
2022-10-15T19:21:37.606Z,35.83
2022-10-15T19:24:06.917Z,36.17
2022-10-15T19:26:35.395Z,36.30
2022-10-15T19:29:03.956Z,36.07
2022-10-15T19:31:36.870Z,34.47
2022-10-15T19:34:05.624Z,32.40
2022-10-15T19:36:35.479Z,37.37
2022-10-15T19:39:05.666Z,36.97
2022-10-15T19:41:36.591Z,33.43
2022-10-15T19:44:05.325Z,32.10
2022-10-15T19:46:36.993Z,35.20
2022-10-15T19:49:05.952Z,35.73
2022-10-15T19:51:34.385Z,35.17
2022-10-15T19:54:02.796Z,36.10
2022-10-15T19:56:30.992Z,36.00
2022-10-15T19:59:00.348Z,36.27
2022-10-15T20:01:30.368Z,34.27
2022-10-15T20:04:04.855Z,35.47
2022-10-15T20:06:35.811Z,32.63
2022-10-15T20:09:04.031Z,31.27
2022-10-15T20:11:32.190Z,37.10
2022-10-15T20:14:00.897Z,33.77
2022-10-15T20:16:32.873Z,34.13
2022-10-15T20:19:04.143Z,36.53
2022-10-15T20:21:32.921Z,37.77
2022-10-15T20:24:04.331Z,36.13
2022-10-15T20:26:34.391Z,36.97
2022-10-15T20:29:03.356Z,36.37
2022-10-15T20:31:34.945Z,39.60
2022-10-15T20:34:04.888Z,34.60
2022-10-15T20:36:33.017Z,42.80
2022-10-15T20:39:02.163Z,35.97
2022-10-15T20:41:30.766Z,38.07
2022-10-15T20:43:59.049Z,42.47
2022-10-15T20:46:31.301Z,39.47
2022-10-15T20:49:08.493Z,40.70
2022-10-15T20:51:41.052Z,38.30
2022-10-15T20:54:10.016Z,37.53
2022-10-15T20:56:38.254Z,43.33
2022-10-15T20:59:07.062Z,40.40
2022-10-15T21:01:36.435Z,39.47
2022-10-15T21:04:05.629Z,43.77
2022-10-15T21:06:34.334Z,41.90
2022-10-15T21:09:04.374Z,42.60
2022-10-15T21:11:32.589Z,39.47
2022-10-15T21:14:01.857Z,38.00
2022-10-15T21:16:30.094Z,43.57
2022-10-15T21:18:58.255Z,40.13
2022-10-15T21:21:26.881Z,28.83
2022-10-15T21:23:55.353Z,39.87
2022-10-15T21:26:24.872Z,38.27
2022-10-15T21:28:56.974Z,34.83
2022-10-15T21:31:25.949Z,37.70
2022-10-15T21:33:55.429Z,38.33
2022-10-15T21:36:26.464Z,33.27
2022-10-15T21:38:56.556Z,19.37
2022-10-15T21:41:27.989Z,39.13
2022-10-15T21:43:56.338Z,37.10
2022-10-15T21:46:25.348Z,39.80
2022-10-15T21:48:54.422Z,39.67
2022-10-15T21:51:25.370Z,39.47
2022-10-15T21:53:54.882Z,40.67
2022-10-15T21:56:23.586Z,37.73
2022-10-15T21:58:54.597Z,39.73
2022-10-15T22:01:25.230Z,35.63
2022-10-15T22:03:55.167Z,40.23
2022-10-15T22:06:23.310Z,42.17
2022-10-15T22:08:51.907Z,39.40
2022-10-15T22:11:22.973Z,40.67
2022-10-15T22:13:55.551Z,37.20
2022-10-15T22:16:25.018Z,37.53
2022-10-15T22:18:53.502Z,37.67
2022-10-15T22:21:23.740Z,38.87
2022-10-15T22:23:54.125Z,37.83
2022-10-15T22:26:25.842Z,37.20
2022-10-15T22:28:56.449Z,37.37
2022-10-15T22:31:25.028Z,35.70
2022-10-15T22:33:53.855Z,37.03
2022-10-15T22:36:24.010Z,37.13
2022-10-15T22:41:24.060Z,32.73
2022-10-15T22:43:52.319Z,28.90
2022-10-15T22:46:22.134Z,28.83
2022-10-15T22:48:50.386Z,29.80
2022-10-15T22:51:18.843Z,29.47
2022-10-15T22:53:47.047Z,27.57
2022-10-15T22:56:17.168Z,26.60
2022-10-15T22:58:45.786Z,24.47
2022-10-15T23:01:16.783Z,22.93
2022-10-15T23:03:47.654Z,19.57
2022-10-15T23:06:16.640Z,18.70
2022-10-15T23:08:47.307Z,20.10
2022-10-15T23:11:17.628Z,18.03
2022-10-15T23:13:46.886Z,18.67
2022-10-15T23:16:16.763Z,18.13
2022-10-15T23:18:47.537Z,17.60
2022-10-15T23:21:18.637Z,18.70
2022-10-15T23:23:47.412Z,18.10
2022-10-15T23:26:17.382Z,18.33
2022-10-15T23:28:46.494Z,17.00
2022-10-15T23:31:18.350Z,15.67
2022-10-15T23:33:48.636Z,16.27
2022-10-15T23:36:17.615Z,15.70
2022-10-15T23:38:46.069Z,14.30
2022-10-15T23:41:15.706Z,13.13
2022-10-15T23:43:43.818Z,11.83
2022-10-15T23:46:12.654Z,13.80
2022-10-15T23:48:41.047Z,11.07
2022-10-15T23:51:15.397Z,12.97
2022-10-15T23:56:12.853Z,13.73
2022-10-15T23:58:41.736Z,14.20
